GRU weather

Guarulhos - Governador André Franco Montoro International Airport
São Paulo, São Paulo, Brazil

Public forecast

Using degrees Celsius for public forecast. Weather courtesy of forecast.io.

Current aviation weather report (METAR) for Guarulhos - Governador André Franco Montoro International Airport

Retrieved 2020/06/06 14:00 UTC (3 minutes ago):

SBGR 061400Z 06008KT CAVOK 21/17 Q1021

Aviation forecast (TAF) for Guarulhos - Governador André Franco Montoro International Airport

Forecast is more than 6 hours old.

Retrieved 2020/06/06 06:42 UTC (7 hours ago):

TAF SBGR 060200Z 0606/0712 07005KT 6000 NSCTN16/0609Z TX27/0618Z PROB30 0607/0611 0400 FG BKN002 BECMG 0612/0614 34014KT CAVOK BECMG 0616/0618 34010KT 9999 SCT040 BECMG 0619/0621 04008KT PROB30 0622/0701 31009KT 5000 TSRA BR BKN015 FEW035CB BECMG 0701/0703 33007KT BKN030 TEMPO 0703/0710 29009KT 4000 RA BR BKN009 BECMG 0710/0712 FEW015 RMK PGE